sensor_id;sensor_type;location;lat;lon;timestamp;P1;durP1;ratioP1;P2;durP2;ratioP2
64851;SDS011;56050;55.558;-4.644;2023-03-18T00:00:42;4.85;;;0.80;;
64851;SDS011;56050;55.558;-4.644;2023-03-18T00:03:08;6.32;;;1.65;;
64851;SDS011;56050;55.558;-4.644;2023-03-18T00:05:34;6.05;;;1.60;;
64851;SDS011;56050;55.558;-4.644;2023-03-18T00:08:01;7.70;;;0.88;;
64851;SDS011;56050;55.558;-4.644;2023-03-18T00:10:28;7.68;;;1.30;;
64851;SDS011;56050;55.558;-4.644;2023-03-18T00:12:54;4.07;;;1.17;;
64851;SDS011;56050;55.558;-4.644;2023-03-18T00:15:19;5.65;;;1.00;;
64851;SDS011;56050;55.558;-4.644;2023-03-18T00:17:45;7.18;;;1.02;;
64851;SDS011;56050;55.558;-4.644;2023-03-18T00:20:12;3.55;;;2.13;;
64851;SDS011;56050;55.558;-4.644;2023-03-18T00:22:41;3.97;;;0.70;;
64851;SDS011;56050;55.558;-4.644;2023-03-18T00:25:08;6.00;;;1.08;;
64851;SDS011;56050;55.558;-4.644;2023-03-18T00:27:35;9.25;;;1.50;;
64851;SDS011;56050;55.558;-4.644;2023-03-18T00:30:02;6.18;;;1.40;;
64851;SDS011;56050;55.558;-4.644;2023-03-18T00:32:29;9.90;;;1.10;;
64851;SDS011;56050;55.558;-4.644;2023-03-18T00:34:55;6.85;;;1.00;;
64851;SDS011;56050;55.558;-4.644;2023-03-18T00:37:21;5.85;;;1.33;;
64851;SDS011;56050;55.558;-4.644;2023-03-18T00:39:58;3.80;;;1.42;;
64851;SDS011;56050;55.558;-4.644;2023-03-18T00:42:34;5.72;;;1.23;;
64851;SDS011;56050;55.558;-4.644;2023-03-18T00:45:06;6.18;;;1.45;;
64851;SDS011;56050;55.558;-4.644;2023-03-18T00:47:34;5.32;;;2.22;;
64851;SDS011;56050;55.558;-4.644;2023-03-18T00:49:59;7.00;;;1.25;;
64851;SDS011;56050;55.558;-4.644;2023-03-18T00:52:25;5.00;;;1.20;;
64851;SDS011;56050;55.558;-4.644;2023-03-18T00:54:51;4.43;;;1.98;;
64851;SDS011;56050;55.558;-4.644;2023-03-18T00:57:17;4.25;;;1.17;;
64851;SDS011;56050;55.558;-4.644;2023-03-18T00:59:43;4.88;;;0.82;;
64851;SDS011;56050;55.558;-4.644;2023-03-18T01:02:08;2.45;;;0.63;;
64851;SDS011;56050;55.558;-4.644;2023-03-18T01:04:34;3.47;;;1.10;;
64851;SDS011;56050;55.558;-4.644;2023-03-18T01:06:59;7.10;;;0.80;;
64851;SDS011;56050;55.558;-4.644;2023-03-18T01:09:26;4.05;;;0.88;;
64851;SDS011;56050;55.558;-4.644;2023-03-18T01:11:52;4.80;;;0.85;;
64851;SDS011;56050;55.558;-4.644;2023-03-18T01:14:18;3.63;;;0.93;;
64851;SDS011;56050;55.558;-4.644;2023-03-18T01:16:44;2.92;;;1.02;;
64851;SDS011;56050;55.558;-4.644;2023-03-18T01:19:11;5.25;;;1.05;;
64851;SDS011;56050;55.558;-4.644;2023-03-18T01:21:37;6.13;;;1.10;;
64851;SDS011;56050;55.558;-4.644;2023-03-18T01:24:03;7.80;;;1.15;;
64851;SDS011;56050;55.558;-4.644;2023-03-18T01:26:29;4.15;;;1.23;;
64851;SDS011;56050;55.558;-4.644;2023-03-18T01:28:54;6.32;;;1.20;;
64851;SDS011;56050;55.558;-4.644;2023-03-18T01:31:21;5.05;;;1.00;;
64851;SDS011;56050;55.558;-4.644;2023-03-18T01:33:48;3.08;;;0.85;;
64851;SDS011;56050;55.558;-4.644;2023-03-18T01:36:13;8.07;;;0.93;;
64851;SDS011;56050;55.558;-4.644;2023-03-18T01:38:39;6.53;;;0.85;;
64851;SDS011;56050;55.558;-4.644;2023-03-18T01:41:06;5.03;;;1.30;;
64851;SDS011;56050;55.558;-4.644;2023-03-18T01:43:33;5.63;;;1.15;;
64851;SDS011;56050;55.558;-4.644;2023-03-18T01:48:49;5.63;;;1.08;;
64851;SDS011;56050;55.558;-4.644;2023-03-18T01:51:16;4.28;;;1.45;;
64851;SDS011;56050;55.558;-4.644;2023-03-18T01:53:43;6.05;;;1.17;;
64851;SDS011;56050;55.558;-4.644;2023-03-18T01:56:11;3.47;;;1.10;;
64851;SDS011;56050;55.558;-4.644;2023-03-18T01:58:39;4.40;;;1.00;;
64851;SDS011;56050;55.558;-4.644;2023-03-18T02:04:01;4.18;;;3.17;;
64851;SDS011;56050;55.558;-4.644;2023-03-18T02:06:28;5.10;;;1.10;;
64851;SDS011;56050;55.558;-4.644;2023-03-18T02:08:54;3.13;;;0.90;;
64851;SDS011;56050;55.558;-4.644;2023-03-18T02:11:20;6.38;;;0.70;;
64851;SDS011;56050;55.558;-4.644;2023-03-18T02:13:47;2.90;;;1.00;;
64851;SDS011;56050;55.558;-4.644;2023-03-18T02:16:22;5.55;;;1.25;;
64851;SDS011;56050;55.558;-4.644;2023-03-18T02:18:51;4.40;;;1.20;;
64851;SDS011;56050;55.558;-4.644;2023-03-18T02:29:05;2.65;;;1.00;;
64851;SDS011;56050;55.558;-4.644;2023-03-18T02:31:32;4.75;;;0.80;;
64851;SDS011;56050;55.558;-4.644;2023-03-18T02:33:59;3.42;;;0.70;;
64851;SDS011;56050;55.558;-4.644;2023-03-18T02:36:26;3.08;;;0.88;;
64851;SDS011;56050;55.558;-4.644;2023-03-18T02:38:55;5.03;;;1.23;;
64851;SDS011;56050;55.558;-4.644;2023-03-18T02:41:31;3.22;;;0.77;;
64851;SDS011;56050;55.558;-4.644;2023-03-18T02:43:58;1.95;;;0.70;;
64851;SDS011;56050;55.558;-4.644;2023-03-18T02:49:12;2.65;;;0.75;;
64851;SDS011;56050;55.558;-4.644;2023-03-18T02:51:38;2.33;;;0.45;;
64851;SDS011;56050;55.558;-4.644;2023-03-18T02:54:09;2.00;;;0.55;;
64851;SDS011;56050;55.558;-4.644;2023-03-18T02:56:37;2.10;;;0.80;;
64851;SDS011;56050;55.558;-4.644;2023-03-18T02:59:03;2.08;;;0.75;;
64851;SDS011;56050;55.558;-4.644;2023-03-18T03:01:30;3.33;;;0.70;;
64851;SDS011;56050;55.558;-4.644;2023-03-18T03:03:57;1.55;;;0.68;;
64851;SDS011;56050;55.558;-4.644;2023-03-18T03:06:23;2.28;;;0.98;;
64851;SDS011;56050;55.558;-4.644;2023-03-18T03:08:49;1.42;;;0.85;;
64851;SDS011;56050;55.558;-4.644;2023-03-18T03:11:15;1.30;;;0.40;;
64851;SDS011;56050;55.558;-4.644;2023-03-18T03:13:41;1.65;;;0.50;;
64851;SDS011;56050;55.558;-4.644;2023-03-18T03:16:09;2.35;;;0.70;;
64851;SDS011;56050;55.558;-4.644;2023-03-18T03:18:35;1.52;;;0.60;;
64851;SDS011;56050;55.558;-4.644;2023-03-18T03:21:01;1.38;;;0.47;;
64851;SDS011;56050;55.558;-4.644;2023-03-18T03:23:26;1.35;;;0.40;;
64851;SDS011;56050;55.558;-4.644;2023-03-18T03:25:52;1.67;;;0.70;;
64851;SDS011;56050;55.558;-4.644;2023-03-18T03:28:18;1.20;;;0.47;;
64851;SDS011;56050;55.558;-4.644;2023-03-18T03:30:43;1.00;;;0.55;;
64851;SDS011;56050;55.558;-4.644;2023-03-18T03:33:10;1.05;;;0.32;;
64851;SDS011;56050;55.558;-4.644;2023-03-18T03:35:36;0.75;;;0.32;;
64851;SDS011;56050;55.558;-4.644;2023-03-18T03:38:03;2.40;;;0.75;;
64851;SDS011;56050;55.558;-4.644;2023-03-18T03:40:29;0.93;;;0.50;;
64851;SDS011;56050;55.558;-4.644;2023-03-18T03:42:55;2.42;;;0.65;;
64851;SDS011;56050;55.558;-4.644;2023-03-18T03:45:20;1.38;;;0.40;;
64851;SDS011;56050;55.558;-4.644;2023-03-18T03:47:46;1.23;;;0.93;;
64851;SDS011;56050;55.558;-4.644;2023-03-18T03:50:12;1.52;;;0.40;;
64851;SDS011;56050;55.558;-4.644;2023-03-18T03:52:39;1.02;;;0.45;;
64851;SDS011;56050;55.558;-4.644;2023-03-18T03:55:06;1.55;;;0.60;;
64851;SDS011;56050;55.558;-4.644;2023-03-18T03:57:33;0.93;;;0.35;;
64851;SDS011;56050;55.558;-4.644;2023-03-18T03:59:59;1.40;;;0.60;;
64851;SDS011;56050;55.558;-4.644;2023-03-18T04:02:25;1.85;;;0.63;;
64851;SDS011;56050;55.558;-4.644;2023-03-18T04:04:52;0.63;;;0.50;;
64851;SDS011;56050;55.558;-4.644;2023-03-18T04:07:17;0.85;;;0.60;;
64851;SDS011;56050;55.558;-4.644;2023-03-18T04:09:43;2.35;;;0.70;;
64851;SDS011;56050;55.558;-4.644;2023-03-18T04:12:08;1.83;;;1.67;;
64851;SDS011;56050;55.558;-4.644;2023-03-18T04:14:35;0.68;;;0.40;;
64851;SDS011;56050;55.558;-4.644;2023-03-18T04:17:01;1.13;;;0.57;;
64851;SDS011;56050;55.558;-4.644;2023-03-18T04:19:27;1.00;;;0.30;;
64851;SDS011;56050;55.558;-4.644;2023-03-18T04:21:53;1.52;;;0.40;;
64851;SDS011;56050;55.558;-4.644;2023-03-18T04:24:22;0.70;;;0.40;;
64851;SDS011;56050;55.558;-4.644;2023-03-18T04:26:48;1.08;;;0.63;;
64851;SDS011;56050;55.558;-4.644;2023-03-18T04:29:14;0.73;;;0.47;;
64851;SDS011;56050;55.558;-4.644;2023-03-18T04:31:40;0.80;;;0.30;;
64851;SDS011;56050;55.558;-4.644;2023-03-18T04:34:05;0.50;;;0.35;;
64851;SDS011;56050;55.558;-4.644;2023-03-18T04:36:31;0.60;;;0.28;;
64851;SDS011;56050;55.558;-4.644;2023-03-18T04:38:56;0.70;;;0.35;;
64851;SDS011;56050;55.558;-4.644;2023-03-18T04:41:22;3.13;;;0.50;;
64851;SDS011;56050;55.558;-4.644;2023-03-18T04:43:48;2.15;;;0.45;;
64851;SDS011;56050;55.558;-4.644;2023-03-18T04:46:13;0.60;;;0.45;;
64851;SDS011;56050;55.558;-4.644;2023-03-18T04:48:40;0.50;;;0.40;;
64851;SDS011;56050;55.558;-4.644;2023-03-18T04:51:05;0.73;;;0.47;;
64851;SDS011;56050;55.558;-4.644;2023-03-18T04:53:33;1.35;;;0.30;;
64851;SDS011;56050;55.558;-4.644;2023-03-18T04:56:02;0.80;;;0.80;;
64851;SDS011;56050;55.558;-4.644;2023-03-18T04:58:28;0.32;;;0.32;;
64851;SDS011;56050;55.558;-4.644;2023-03-18T05:00:54;2.22;;;0.30;;
64851;SDS011;56050;55.558;-4.644;2023-03-18T05:03:20;0.40;;;0.32;;
64851;SDS011;56050;55.558;-4.644;2023-03-18T05:05:45;1.45;;;0.47;;
64851;SDS011;56050;55.558;-4.644;2023-03-18T05:08:11;0.50;;;0.30;;
64851;SDS011;56050;55.558;-4.644;2023-03-18T05:10:37;0.63;;;0.63;;
64851;SDS011;56050;55.558;-4.644;2023-03-18T05:13:04;1.00;;;0.30;;
64851;SDS011;56050;55.558;-4.644;2023-03-18T05:15:30;1.67;;;0.32;;
64851;SDS011;56050;55.558;-4.644;2023-03-18T05:17:56;3.38;;;0.32;;
64851;SDS011;56050;55.558;-4.644;2023-03-18T05:20:21;9.77;;;0.93;;
64851;SDS011;56050;55.558;-4.644;2023-03-18T05:22:47;2.08;;;0.63;;
64851;SDS011;56050;55.558;-4.644;2023-03-18T05:25:12;0.85;;;0.40;;
64851;SDS011;56050;55.558;-4.644;2023-03-18T05:27:38;0.90;;;0.50;;
64851;SDS011;56050;55.558;-4.644;2023-03-18T05:30:05;3.00;;;0.60;;
64851;SDS011;56050;55.558;-4.644;2023-03-18T05:32:31;0.40;;;0.30;;
64851;SDS011;56050;55.558;-4.644;2023-03-18T05:34:56;0.50;;;0.32;;
64851;SDS011;56050;55.558;-4.644;2023-03-18T05:37:22;1.35;;;0.30;;
64851;SDS011;56050;55.558;-4.644;2023-03-18T05:39:48;0.63;;;0.30;;
64851;SDS011;56050;55.558;-4.644;2023-03-18T05:42:14;1.75;;;0.40;;
64851;SDS011;56050;55.558;-4.644;2023-03-18T05:44:40;2.85;;;0.70;;
64851;SDS011;56050;55.558;-4.644;2023-03-18T05:47:07;3.17;;;0.70;;
64851;SDS011;56050;55.558;-4.644;2023-03-18T05:49:33;1.23;;;0.50;;
64851;SDS011;56050;55.558;-4.644;2023-03-18T05:51:58;2.78;;;0.30;;
64851;SDS011;56050;55.558;-4.644;2023-03-18T05:54:24;0.50;;;0.30;;
64851;SDS011;56050;55.558;-4.644;2023-03-18T05:56:49;0.63;;;0.43;;
64851;SDS011;56050;55.558;-4.644;2023-03-18T05:59:16;2.20;;;0.55;;
64851;SDS011;56050;55.558;-4.644;2023-03-18T06:01:42;1.23;;;0.40;;
64851;SDS011;56050;55.558;-4.644;2023-03-18T06:04:08;2.38;;;0.45;;
64851;SDS011;56050;55.558;-4.644;2023-03-18T06:06:34;1.95;;;0.88;;
64851;SDS011;56050;55.558;-4.644;2023-03-18T06:09:05;0.77;;;0.47;;
64851;SDS011;56050;55.558;-4.644;2023-03-18T06:11:31;0.80;;;0.28;;
64851;SDS011;56050;55.558;-4.644;2023-03-18T06:13:56;1.27;;;0.28;;
64851;SDS011;56050;55.558;-4.644;2023-03-18T06:16:22;0.43;;;0.32;;
64851;SDS011;56050;55.558;-4.644;2023-03-18T06:18:48;0.45;;;0.25;;
64851;SDS011;56050;55.558;-4.644;2023-03-18T06:21:13;1.50;;;0.52;;
64851;SDS011;56050;55.558;-4.644;2023-03-18T06:23:39;2.33;;;0.68;;
64851;SDS011;56050;55.558;-4.644;2023-03-18T06:26:05;0.40;;;0.40;;
64851;SDS011;56050;55.558;-4.644;2023-03-18T06:28:31;0.90;;;0.38;;
64851;SDS011;56050;55.558;-4.644;2023-03-18T06:30:56;0.90;;;0.40;;
64851;SDS011;56050;55.558;-4.644;2023-03-18T06:33:23;0.65;;;0.65;;
64851;SDS011;56050;55.558;-4.644;2023-03-18T06:35:50;0.45;;;0.32;;
64851;SDS011;56050;55.558;-4.644;2023-03-18T06:38:19;0.57;;;0.50;;
64851;SDS011;56050;55.558;-4.644;2023-03-18T06:40:44;1.45;;;0.47;;
64851;SDS011;56050;55.558;-4.644;2023-03-18T06:43:11;0.95;;;0.20;;
64851;SDS011;56050;55.558;-4.644;2023-03-18T06:45:37;0.30;;;0.20;;
64851;SDS011;56050;55.558;-4.644;2023-03-18T06:48:04;1.42;;;0.25;;
64851;SDS011;56050;55.558;-4.644;2023-03-18T06:50:30;1.88;;;1.67;;
64851;SDS011;56050;55.558;-4.644;2023-03-18T06:52:57;0.73;;;0.30;;
64851;SDS011;56050;55.558;-4.644;2023-03-18T06:55:23;1.60;;;0.40;;
64851;SDS011;56050;55.558;-4.644;2023-03-18T06:57:52;0.50;;;0.40;;
64851;SDS011;56050;55.558;-4.644;2023-03-18T07:00:18;0.70;;;0.60;;
64851;SDS011;56050;55.558;-4.644;2023-03-18T07:02:43;1.38;;;0.43;;
64851;SDS011;56050;55.558;-4.644;2023-03-18T07:05:10;0.60;;;0.43;;
64851;SDS011;56050;55.558;-4.644;2023-03-18T07:07:36;0.90;;;0.40;;
64851;SDS011;56050;55.558;-4.644;2023-03-18T07:10:03;0.68;;;0.30;;
64851;SDS011;56050;55.558;-4.644;2023-03-18T07:12:31;1.35;;;0.32;;
64851;SDS011;56050;55.558;-4.644;2023-03-18T07:14:56;0.70;;;0.52;;
64851;SDS011;56050;55.558;-4.644;2023-03-18T07:17:22;0.75;;;0.65;;
64851;SDS011;56050;55.558;-4.644;2023-03-18T07:19:48;0.73;;;0.30;;
64851;SDS011;56050;55.558;-4.644;2023-03-18T07:22:14;0.70;;;0.70;;
64851;SDS011;56050;55.558;-4.644;2023-03-18T07:24:43;2.30;;;2.10;;
64851;SDS011;56050;55.558;-4.644;2023-03-18T07:27:09;1.65;;;0.60;;
64851;SDS011;56050;55.558;-4.644;2023-03-18T07:29:37;1.95;;;0.30;;
64851;SDS011;56050;55.558;-4.644;2023-03-18T07:32:02;0.65;;;0.30;;
64851;SDS011;56050;55.558;-4.644;2023-03-18T07:34:28;1.55;;;0.20;;
64851;SDS011;56050;55.558;-4.644;2023-03-18T07:36:54;0.95;;;0.20;;
64851;SDS011;56050;55.558;-4.644;2023-03-18T07:39:20;1.15;;;0.50;;
64851;SDS011;56050;55.558;-4.644;2023-03-18T07:41:46;0.55;;;0.43;;
64851;SDS011;56050;55.558;-4.644;2023-03-18T07:44:13;0.57;;;0.20;;
64851;SDS011;56050;55.558;-4.644;2023-03-18T07:46:39;0.50;;;0.25;;
64851;SDS011;56050;55.558;-4.644;2023-03-18T07:49:05;1.80;;;0.70;;
64851;SDS011;56050;55.558;-4.644;2023-03-18T07:51:30;1.55;;;0.68;;
64851;SDS011;56050;55.558;-4.644;2023-03-18T07:53:56;1.20;;;0.47;;
64851;SDS011;56050;55.558;-4.644;2023-03-18T07:56:22;1.08;;;0.40;;
64851;SDS011;56050;55.558;-4.644;2023-03-18T07:58:48;1.15;;;0.60;;
64851;SDS011;56050;55.558;-4.644;2023-03-18T08:01:13;1.52;;;0.40;;
64851;SDS011;56050;55.558;-4.644;2023-03-18T08:03:42;1.58;;;0.63;;
64851;SDS011;56050;55.558;-4.644;2023-03-18T08:06:08;1.40;;;0.32;;
64851;SDS011;56050;55.558;-4.644;2023-03-18T08:08:35;0.60;;;0.22;;
64851;SDS011;56050;55.558;-4.644;2023-03-18T08:11:01;1.02;;;0.85;;
64851;SDS011;56050;55.558;-4.644;2023-03-18T08:13:26;1.35;;;0.35;;
64851;SDS011;56050;55.558;-4.644;2023-03-18T08:15:53;1.23;;;0.40;;
64851;SDS011;56050;55.558;-4.644;2023-03-18T08:18:20;1.30;;;0.35;;
64851;SDS011;56050;55.558;-4.644;2023-03-18T08:20:45;9.00;;;1.80;;
64851;SDS011;56050;55.558;-4.644;2023-03-18T08:23:12;0.77;;;0.45;;
64851;SDS011;56050;55.558;-4.644;2023-03-18T08:25:38;0.88;;;0.22;;
64851;SDS011;56050;55.558;-4.644;2023-03-18T08:28:04;0.88;;;0.30;;
64851;SDS011;56050;55.558;-4.644;2023-03-18T08:30:31;1.83;;;0.82;;
64851;SDS011;56050;55.558;-4.644;2023-03-18T08:32:57;1.65;;;0.43;;
64851;SDS011;56050;55.558;-4.644;2023-03-18T08:35:23;1.63;;;0.30;;
64851;SDS011;56050;55.558;-4.644;2023-03-18T08:37:49;2.40;;;0.50;;
64851;SDS011;56050;55.558;-4.644;2023-03-18T08:40:15;0.70;;;0.20;;
64851;SDS011;56050;55.558;-4.644;2023-03-18T08:42:41;0.60;;;0.20;;
64851;SDS011;56050;55.558;-4.644;2023-03-18T08:45:07;1.80;;;0.40;;
64851;SDS011;56050;55.558;-4.644;2023-03-18T08:47:33;0.70;;;0.45;;
64851;SDS011;56050;55.558;-4.644;2023-03-18T08:49:59;0.30;;;0.30;;
64851;SDS011;56050;55.558;-4.644;2023-03-18T08:52:24;1.00;;;0.43;;
64851;SDS011;56050;55.558;-4.644;2023-03-18T08:54:50;1.65;;;0.60;;
64851;SDS011;56050;55.558;-4.644;2023-03-18T08:57:15;0.75;;;0.73;;
64851;SDS011;56050;55.558;-4.644;2023-03-18T08:59:41;1.50;;;0.43;;
64851;SDS011;56050;55.558;-4.644;2023-03-18T09:02:09;0.88;;;0.20;;
64851;SDS011;56050;55.558;-4.644;2023-03-18T09:04:40;1.17;;;0.65;;
64851;SDS011;56050;55.558;-4.644;2023-03-18T09:07:06;1.45;;;0.38;;
64851;SDS011;56050;55.558;-4.644;2023-03-18T09:09:32;3.08;;;0.25;;
64851;SDS011;56050;55.558;-4.644;2023-03-18T09:11:57;0.80;;;0.40;;
64851;SDS011;56050;55.558;-4.644;2023-03-18T09:14:23;0.82;;;0.30;;
64851;SDS011;56050;55.558;-4.644;2023-03-18T09:16:48;0.45;;;0.20;;
64851;SDS011;56050;55.558;-4.644;2023-03-18T09:19:13;4.63;;;0.73;;
64851;SDS011;56050;55.558;-4.644;2023-03-18T09:21:39;0.88;;;0.50;;
64851;SDS011;56050;55.558;-4.644;2023-03-18T09:24:04;0.40;;;0.20;;
64851;SDS011;56050;55.558;-4.644;2023-03-18T09:26:30;1.77;;;0.40;;
64851;SDS011;56050;55.558;-4.644;2023-03-18T09:28:55;2.72;;;0.75;;
64851;SDS011;56050;55.558;-4.644;2023-03-18T09:31:21;2.28;;;0.70;;
64851;SDS011;56050;55.558;-4.644;2023-03-18T09:33:46;1.63;;;0.77;;
64851;SDS011;56050;55.558;-4.644;2023-03-18T09:36:12;1.60;;;0.45;;
64851;SDS011;56050;55.558;-4.644;2023-03-18T09:38:38;1.30;;;1.08;;
64851;SDS011;56050;55.558;-4.644;2023-03-18T09:46:24;5.00;;;0.63;;
64851;SDS011;56050;55.558;-4.644;2023-03-18T09:53:55;1.27;;;0.38;;
64851;SDS011;56050;55.558;-4.644;2023-03-18T09:56:27;1.65;;;0.40;;
64851;SDS011;56050;55.558;-4.644;2023-03-18T10:01:27;0.88;;;0.65;;
64851;SDS011;56050;55.558;-4.644;2023-03-18T10:04:38;2.67;;;0.40;;
64851;SDS011;56050;55.558;-4.644;2023-03-18T10:06:46;3.53;;;0.28;;
64851;SDS011;56050;55.558;-4.644;2023-03-18T10:09:28;1.30;;;0.30;;
64851;SDS011;56050;55.558;-4.644;2023-03-18T10:12:06;1.23;;;0.50;;
64851;SDS011;56050;55.558;-4.644;2023-03-18T10:17:29;0.60;;;0.32;;
64851;SDS011;56050;55.558;-4.644;2023-03-18T10:20:00;2.60;;;0.60;;
64851;SDS011;56050;55.558;-4.644;2023-03-18T10:38:48;0.63;;;0.40;;
64851;SDS011;56050;55.558;-4.644;2023-03-18T10:41:22;0.90;;;0.82;;
64851;SDS011;56050;55.558;-4.644;2023-03-18T10:43:53;1.13;;;0.47;;
64851;SDS011;56050;55.558;-4.644;2023-03-18T10:46:20;3.40;;;0.20;;
64851;SDS011;56050;55.558;-4.644;2023-03-18T10:48:49;1.05;;;0.40;;
64851;SDS011;56050;55.558;-4.644;2023-03-18T10:53:58;0.68;;;0.52;;
64851;SDS011;56050;55.558;-4.644;2023-03-18T10:56:34;1.42;;;1.10;;
64851;SDS011;56050;55.558;-4.644;2023-03-18T10:59:00;0.80;;;0.52;;
64851;SDS011;56050;55.558;-4.644;2023-03-18T11:01:29;0.82;;;0.40;;
64851;SDS011;56050;55.558;-4.644;2023-03-18T11:03:59;1.48;;;0.50;;
64851;SDS011;56050;55.558;-4.644;2023-03-18T11:06:39;1.45;;;0.80;;
64851;SDS011;56050;55.558;-4.644;2023-03-18T11:09:14;2.15;;;0.60;;
64851;SDS011;56050;55.558;-4.644;2023-03-18T11:11:43;2.17;;;0.43;;
64851;SDS011;56050;55.558;-4.644;2023-03-18T11:14:19;0.95;;;0.55;;
64851;SDS011;56050;55.558;-4.644;2023-03-18T11:16:57;3.10;;;0.70;;
64851;SDS011;56050;55.558;-4.644;2023-03-18T11:19:30;1.00;;;0.35;;
64851;SDS011;56050;55.558;-4.644;2023-03-18T11:22:04;1.67;;;0.57;;
64851;SDS011;56050;55.558;-4.644;2023-03-18T11:24:34;0.75;;;0.75;;
64851;SDS011;56050;55.558;-4.644;2023-03-18T11:27:05;0.77;;;0.50;;
64851;SDS011;56050;55.558;-4.644;2023-03-18T11:29:58;2.45;;;0.50;;
64851;SDS011;56050;55.558;-4.644;2023-03-18T11:32:28;0.65;;;0.35;;
64851;SDS011;56050;55.558;-4.644;2023-03-18T11:34:56;1.23;;;0.50;;
64851;SDS011;56050;55.558;-4.644;2023-03-18T11:37:38;2.28;;;0.35;;
64851;SDS011;56050;55.558;-4.644;2023-03-18T11:40:06;1.30;;;0.40;;
64851;SDS011;56050;55.558;-4.644;2023-03-18T11:42:42;0.88;;;0.30;;
64851;SDS011;56050;55.558;-4.644;2023-03-18T11:45:25;1.77;;;0.52;;
64851;SDS011;56050;55.558;-4.644;2023-03-18T11:47:55;1.13;;;0.47;;
64851;SDS011;56050;55.558;-4.644;2023-03-18T11:50:22;1.95;;;1.05;;
64851;SDS011;56050;55.558;-4.644;2023-03-18T12:06:26;1.55;;;0.30;;
64851;SDS011;56050;55.558;-4.644;2023-03-18T12:28:27;4.03;;;1.02;;
64851;SDS011;56050;55.558;-4.644;2023-03-18T12:31:18;7.10;;;0.70;;
64851;SDS011;56050;55.558;-4.644;2023-03-18T12:33:55;2.30;;;0.70;;
64851;SDS011;56050;55.558;-4.644;2023-03-18T12:45:00;3.75;;;1.23;;
64851;SDS011;56050;55.558;-4.644;2023-03-18T12:47:35;5.38;;;1.02;;
64851;SDS011;56050;55.558;-4.644;2023-03-18T12:53:32;6.60;;;1.33;;
64851;SDS011;56050;55.558;-4.644;2023-03-18T12:56:04;5.38;;;1.30;;
64851;SDS011;56050;55.558;-4.644;2023-03-18T12:58:38;4.32;;;1.00;;
64851;SDS011;56050;55.558;-4.644;2023-03-18T13:04:23;6.65;;;1.30;;
64851;SDS011;56050;55.558;-4.644;2023-03-18T13:07:00;5.30;;;1.13;;
64851;SDS011;56050;55.558;-4.644;2023-03-18T13:09:36;7.72;;;1.05;;
64851;SDS011;56050;55.558;-4.644;2023-03-18T13:17:24;4.72;;;1.02;;
64851;SDS011;56050;55.558;-4.644;2023-03-18T13:19:58;6.10;;;1.30;;
64851;SDS011;56050;55.558;-4.644;2023-03-18T13:25:30;4.93;;;1.13;;
64851;SDS011;56050;55.558;-4.644;2023-03-18T13:28:07;5.10;;;1.05;;
64851;SDS011;56050;55.558;-4.644;2023-03-18T13:33:31;5.18;;;1.17;;
64851;SDS011;56050;55.558;-4.644;2023-03-18T13:36:07;5.90;;;1.58;;
64851;SDS011;56050;55.558;-4.644;2023-03-18T13:43:56;4.43;;;1.25;;
64851;SDS011;56050;55.558;-4.644;2023-03-18T13:46:25;6.45;;;1.73;;
64851;SDS011;56050;55.558;-4.644;2023-03-18T13:49:00;10.18;;;2.03;;
64851;SDS011;56050;55.558;-4.644;2023-03-18T13:53:53;5.60;;;1.30;;
64851;SDS011;56050;55.558;-4.644;2023-03-18T14:01:57;7.00;;;1.13;;
64851;SDS011;56050;55.558;-4.644;2023-03-18T14:04:43;4.30;;;0.73;;
64851;SDS011;56050;55.558;-4.644;2023-03-18T14:07:12;7.63;;;1.00;;
64851;SDS011;56050;55.558;-4.644;2023-03-18T14:10:23;3.70;;;0.60;;
64851;SDS011;56050;55.558;-4.644;2023-03-18T14:15:01;2.72;;;0.30;;
64851;SDS011;56050;55.558;-4.644;2023-03-18T14:17:29;2.25;;;0.88;;
64851;SDS011;56050;55.558;-4.644;2023-03-18T14:20:04;1.08;;;0.30;;
64851;SDS011;56050;55.558;-4.644;2023-03-18T14:22:39;4.03;;;0.40;;
64851;SDS011;56050;55.558;-4.644;2023-03-18T14:33:00;1.80;;;0.57;;
64851;SDS011;56050;55.558;-4.644;2023-03-18T14:40:45;1.50;;;0.68;;
64851;SDS011;56050;55.558;-4.644;2023-03-18T14:46:05;2.67;;;0.75;;
64851;SDS011;56050;55.558;-4.644;2023-03-18T14:48:42;1.85;;;0.60;;
64851;SDS011;56050;55.558;-4.644;2023-03-18T14:51:10;1.75;;;0.50;;
64851;SDS011;56050;55.558;-4.644;2023-03-18T14:53:43;5.75;;;0.65;;
64851;SDS011;56050;55.558;-4.644;2023-03-18T14:56:20;2.38;;;0.75;;
64851;SDS011;56050;55.558;-4.644;2023-03-18T14:58:49;3.33;;;2.38;;
64851;SDS011;56050;55.558;-4.644;2023-03-18T15:01:17;2.08;;;0.30;;
64851;SDS011;56050;55.558;-4.644;2023-03-18T15:04:07;1.23;;;0.68;;
64851;SDS011;56050;55.558;-4.644;2023-03-18T15:06:41;4.65;;;0.90;;
64851;SDS011;56050;55.558;-4.644;2023-03-18T15:09:09;1.63;;;0.40;;
64851;SDS011;56050;55.558;-4.644;2023-03-18T15:11:42;2.13;;;0.52;;
64851;SDS011;56050;55.558;-4.644;2023-03-18T15:17:11;3.03;;;0.60;;
64851;SDS011;56050;55.558;-4.644;2023-03-18T15:19:37;5.05;;;1.48;;
64851;SDS011;56050;55.558;-4.644;2023-03-18T15:22:03;5.47;;;1.02;;
64851;SDS011;56050;55.558;-4.644;2023-03-18T15:24:31;8.05;;;0.73;;
64851;SDS011;56050;55.558;-4.644;2023-03-18T15:29:51;3.35;;;0.47;;
64851;SDS011;56050;55.558;-4.644;2023-03-18T15:37:38;3.72;;;1.17;;
64851;SDS011;56050;55.558;-4.644;2023-03-18T15:43:02;4.50;;;0.68;;
64851;SDS011;56050;55.558;-4.644;2023-03-18T15:45:28;2.92;;;0.60;;
64851;SDS011;56050;55.558;-4.644;2023-03-18T15:47:54;2.08;;;0.88;;
64851;SDS011;56050;55.558;-4.644;2023-03-18T15:50:28;11.35;;;1.02;;
64851;SDS011;56050;55.558;-4.644;2023-03-18T15:53:13;11.10;;;1.35;;
64851;SDS011;56050;55.558;-4.644;2023-03-18T15:56:13;2.97;;;1.02;;
64851;SDS011;56050;55.558;-4.644;2023-03-18T15:58:35;4.35;;;1.10;;
64851;SDS011;56050;55.558;-4.644;2023-03-18T16:01:02;3.90;;;0.95;;
64851;SDS011;56050;55.558;-4.644;2023-03-18T16:03:31;2.83;;;0.30;;
64851;SDS011;56050;55.558;-4.644;2023-03-18T16:05:58;5.72;;;0.47;;
64851;SDS011;56050;55.558;-4.644;2023-03-18T16:08:25;3.72;;;1.05;;
64851;SDS011;56050;55.558;-4.644;2023-03-18T16:10:54;4.80;;;0.70;;
64851;SDS011;56050;55.558;-4.644;2023-03-18T16:13:29;5.85;;;0.80;;
64851;SDS011;56050;55.558;-4.644;2023-03-18T16:15:58;3.03;;;0.77;;
64851;SDS011;56050;55.558;-4.644;2023-03-18T16:18:24;6.28;;;0.82;;
64851;SDS011;56050;55.558;-4.644;2023-03-18T16:20:49;4.75;;;0.85;;
64851;SDS011;56050;55.558;-4.644;2023-03-18T16:23:17;2.85;;;0.68;;
64851;SDS011;56050;55.558;-4.644;2023-03-18T16:25:46;2.72;;;0.68;;
64851;SDS011;56050;55.558;-4.644;2023-03-18T16:28:14;5.03;;;0.70;;
64851;SDS011;56050;55.558;-4.644;2023-03-18T16:30:44;4.80;;;0.80;;
64851;SDS011;56050;55.558;-4.644;2023-03-18T16:33:11;9.98;;;1.00;;
64851;SDS011;56050;55.558;-4.644;2023-03-18T16:35:38;4.88;;;0.98;;
64851;SDS011;56050;55.558;-4.644;2023-03-18T16:38:04;6.28;;;0.82;;
64851;SDS011;56050;55.558;-4.644;2023-03-18T16:40:31;5.72;;;0.90;;
64851;SDS011;56050;55.558;-4.644;2023-03-18T16:42:57;2.83;;;0.65;;
64851;SDS011;56050;55.558;-4.644;2023-03-18T16:45:26;4.90;;;1.00;;
64851;SDS011;56050;55.558;-4.644;2023-03-18T16:47:55;3.75;;;0.93;;
64851;SDS011;56050;55.558;-4.644;2023-03-18T16:50:28;2.22;;;0.85;;
64851;SDS011;56050;55.558;-4.644;2023-03-18T16:55:22;2.23;;;0.93;;
64851;SDS011;56050;55.558;-4.644;2023-03-18T16:57:52;2.72;;;0.85;;
64851;SDS011;56050;55.558;-4.644;2023-03-18T17:02:46;5.03;;;0.75;;
64851;SDS011;56050;55.558;-4.644;2023-03-18T17:05:13;6.60;;;1.17;;
64851;SDS011;56050;55.558;-4.644;2023-03-18T17:07:41;2.67;;;1.00;;
64851;SDS011;56050;55.558;-4.644;2023-03-18T17:10:08;2.17;;;0.57;;
64851;SDS011;56050;55.558;-4.644;2023-03-18T17:12:35;3.63;;;0.80;;
64851;SDS011;56050;55.558;-4.644;2023-03-18T17:15:01;3.67;;;0.73;;
64851;SDS011;56050;55.558;-4.644;2023-03-18T17:17:28;3.75;;;0.75;;
64851;SDS011;56050;55.558;-4.644;2023-03-18T17:19:59;3.95;;;0.43;;